Terminal Aerodrome Forecast
Issued by NWS Sioux Falls, SD

Home | Current Version | Previous Version | Graphics & Text | Print | Product List | Glossary On
Versions: 1 2 3 4 5 6 7 8 9 10 11 12 13 14 15
000
FTUS43 KFSD 250550
TAFHON
TAF
KHON 250550Z 2506/2606 35015G22KT 3SM -SN OVC006
     FM250800 35014G20KT 6SM -SN OVC008
     FM251000 34012G16KT P6SM OVC010
     FM251400 33009KT P6SM BKN025
     FM252000 30006KT P6SM SCT040 BKN200
     FM260300 16005KT P6SM BKN100=

USA.gov is the U.S. government's official web portal to all federal, state and local government web resources and services.